Time;durP1;ratioP1;P1;durP2;ratioP2;P2;SDS_P1;SDS_P2;PMS_P1;PMS_P2;Temp;Humidity;BMP_temperature;BMP_pressure;BME280_temperature;BME280_humidity;BME280_pressure;Samples;Min_cycle;Max_cycle;Signal;HPM_P1;HPM_P2
2022/06/29 00:01:16;;;;;;;7.00;4.10;;;;;;;25.87;55.73;99790.66;4471668;32;32497;-82
2022/06/29 00:03:45;;;;;;;6.03;3.58;;;;;;;25.68;56.10;99785.06;4471264;32;31945;-84
2022/06/29 00:06:16;;;;;;;6.35;3.90;;;;;;;25.75;55.71;99788.34;4471419;32;33806;-83
2022/06/29 00:08:47;;;;;;;7.97;4.00;;;;;;;25.66;55.82;99778.94;4471224;32;35043;-82
2022/06/29 00:11:18;;;;;;;6.53;4.30;;;;;;;25.66;55.94;99778.09;4471306;32;33849;-83
2022/06/29 00:13:48;;;;;;;7.75;3.85;;;;;;;25.60;56.31;99768.88;4471218;32;33316;-82
2022/06/29 00:16:20;;;;;;;10.25;4.20;;;;;;;25.69;56.10;99771.84;4471181;32;33909;-84
2022/06/29 00:18:56;;;;;;;7.95;4.00;;;;;;;25.68;56.09;99770.19;4471220;32;34542;-83
2022/06/29 00:21:29;;;;;;;5.53;3.70;;;;;;;25.62;56.25;99778.66;4458840;32;34815;-83
2022/06/29 00:24:03;;;;;;;5.85;3.92;;;;;;;25.39;56.80;99773.16;4471075;32;31940;-84
2022/06/29 00:26:37;;;;;;;6.47;4.00;;;;;;;25.58;56.17;99773.97;4471021;32;32324;-84
2022/06/29 00:29:10;;;;;;;5.95;3.87;;;;;;;25.54;56.03;99767.28;4484097;32;35379;-84
2022/06/29 00:31:41;;;;;;;5.30;3.50;;;;;;;25.42;56.10;99766.91;4485113;32;34036;-83
2022/06/29 00:34:14;;;;;;;5.47;3.75;;;;;;;25.47;55.72;99759.25;4471205;32;33210;-83
2022/06/29 00:36:45;;;;;;;7.75;3.95;;;;;;;25.49;55.57;99756.13;4470888;32;33498;-83
2022/06/29 00:39:16;;;;;;;6.05;3.75;;;;;;;25.47;55.74;99749.97;4471505;32;32723;-83
2022/06/29 00:41:48;;;;;;;8.30;3.87;;;;;;;25.35;56.34;99744.81;4485938;32;34016;-83
2022/06/29 00:44:21;;;;;;;7.57;3.85;;;;;;;25.42;56.15;99741.63;4472987;32;33606;-83
2022/06/29 00:46:59;;;;;;;7.70;4.05;;;;;;;25.42;56.23;99736.00;4485848;32;34576;-82
2022/06/29 00:49:34;;;;;;;5.80;3.53;;;;;;;25.43;56.33;99743.28;4472794;32;34420;-84
2022/06/29 00:52:10;;;;;;;7.05;3.53;;;;;;;25.35;56.59;99750.44;4459954;32;33920;-85
2022/06/29 00:54:49;;;;;;;7.62;4.35;;;;;;;25.36;56.44;99749.31;4472725;32;33526;-83
2022/06/29 00:57:24;;;;;;;7.40;3.37;;;;;;;25.39;56.28;99740.25;4473131;32;33328;-83
2022/06/29 00:59:58;;;;;;;6.90;3.95;;;;;;;25.33;56.50;99743.50;4485715;32;33856;-83
2022/06/29 01:02:34;;;;;;;8.40;3.70;;;;;;;25.30;56.50;99741.28;4472584;32;32561;-84
2022/06/29 01:05:11;;;;;;;6.60;3.90;;;;;;;25.32;56.38;99742.66;4473327;32;33583;-84
2022/06/29 01:07:41;;;;;;;8.48;3.70;;;;;;;25.28;56.45;99742.44;4472941;32;34375;-83
2022/06/29 01:10:15;;;;;;;5.62;3.53;;;;;;;25.33;56.24;99740.69;4472681;32;35309;-83
2022/06/29 01:12:52;;;;;;;8.50;4.40;;;;;;;25.27;56.39;99737.94;4472750;32;33761;-82
2022/06/29 01:15:23;;;;;;;5.32;3.45;;;;;;;25.17;56.88;99740.91;4472446;32;33567;-83
2022/06/29 01:17:53;;;;;;;5.60;3.72;;;;;;;25.10;57.05;99742.44;4472957;32;33918;-82
2022/06/29 01:20:21;;;;;;;6.85;3.67;;;;;;;25.17;56.84;99745.69;4472491;32;33714;-83
2022/06/29 01:22:53;;;;;;;9.10;3.85;;;;;;;25.15;56.85;99746.00;4472792;32;34145;-83
2022/06/29 01:25:24;;;;;;;6.93;3.67;;;;;;;25.10;56.90;99746.06;4485774;32;33953;-83
2022/06/29 01:27:52;;;;;;;6.20;3.90;;;;;;;25.00;57.16;99746.22;4485597;32;33314;-84
2022/06/29 01:30:22;;;;;;;7.85;3.80;;;;;;;25.04;56.95;99747.28;4472174;32;32988;-83
2022/06/29 01:32:53;;;;;;;7.32;3.78;;;;;;;25.04;56.95;99744.47;4472780;32;34884;-82
2022/06/29 01:35:23;;;;;;;8.35;3.70;;;;;;;25.01;56.96;99745.09;4472379;32;33523;-82
2022/06/29 01:37:54;;;;;;;7.18;3.85;;;;;;;25.01;56.86;99733.03;4472411;32;33073;-83
2022/06/29 01:40:24;;;;;;;7.25;4.00;;;;;;;24.97;57.09;99732.78;4472645;32;34401;-84
2022/06/29 01:43:01;;;;;;;4.85;3.58;;;;;;;24.94;57.22;99728.56;4473361;32;34027;-83
2022/06/29 01:45:30;;;;;;;5.15;3.47;;;;;;;24.97;57.15;99720.72;4472385;32;33386;-84
2022/06/29 01:48:01;;;;;;;7.32;3.75;;;;;;;24.95;57.29;99719.03;4472412;32;33820;-84
2022/06/29 01:50:32;;;;;;;6.80;4.00;;;;;;;24.92;57.31;99716.81;4458797;32;34321;-84
2022/06/29 01:53:02;;;;;;;10.00;4.40;;;;;;;24.92;57.32;99719.63;4472746;32;34005;-83
2022/06/29 01:55:32;;;;;;;7.43;3.45;;;;;;;24.81;57.69;99722.88;4472447;32;33358;-83
2022/06/29 01:58:02;;;;;;;6.40;3.97;;;;;;;24.83;57.61;99717.78;4472528;32;32552;-82
2022/06/29 02:00:33;;;;;;;6.10;4.18;;;;;;;24.84;57.58;99717.50;4459852;32;32687;-83
2022/06/29 02:03:01;;;;;;;5.90;3.92;;;;;;;24.76;57.79;99720.13;4472381;32;32450;-83
2022/06/29 02:05:29;;;;;;;5.53;3.78;;;;;;;24.80;57.70;99721.22;4472292;32;33222;-83
2022/06/29 02:07:57;;;;;;;5.00;3.65;;;;;;;24.78;57.78;99720.66;4472041;32;33774;-84
2022/06/29 02:10:27;;;;;;;8.40;4.15;;;;;;;24.77;57.80;99716.19;4472280;32;32425;-83
2022/06/29 02:12:55;;;;;;;6.60;4.05;;;;;;;24.58;58.30;99713.38;4485241;32;34795;-83
2022/06/29 02:15:26;;;;;;;9.43;4.25;;;;;;;24.58;58.32;99716.19;4472170;32;32818;-82
2022/06/29 02:17:59;;;;;;;6.28;3.78;;;;;;;24.72;57.79;99714.28;4472226;32;33670;-82
2022/06/29 02:20:28;;;;;;;5.85;3.90;;;;;;;24.72;57.70;99710.66;4472521;32;34999;-83
2022/06/29 02:22:56;;;;;;;6.45;3.83;;;;;;;24.69;57.88;99708.47;4472273;32;34103;-82
2022/06/29 02:25:27;;;;;;;8.25;4.15;;;;;;;24.66;58.13;99714.69;4472358;32;33549;-82
2022/06/29 02:27:58;;;;;;;6.03;3.95;;;;;;;24.52;58.50;99707.00;4459678;32;32007;-82
2022/06/29 02:36:25;;;;;;;7.53;4.80;;;;;;;24.44;58.78;99712.44;4422166;32;33230;-82
2022/06/29 02:39:01;;;;;;;7.12;3.87;;;;;;;24.55;58.37;99717.63;4446767;32;33541;-82
2022/06/29 02:41:32;;;;;;;6.22;3.78;;;;;;;24.57;58.27;99711.72;4472662;32;34204;-84
2022/06/29 02:44:04;;;;;;;6.80;4.20;;;;;;;24.50;58.47;99716.84;4472487;32;33994;-83
2022/06/29 02:46:31;;;;;;;6.68;4.30;;;;;;;24.54;58.39;99712.31;4472036;32;33363;-83
2022/06/29 02:49:06;;;;;;;7.68;4.22;;;;;;;24.54;58.39;99713.16;4472063;32;34431;-83
2022/06/29 02:51:38;;;;;;;11.07;4.20;;;;;;;24.67;57.93;99710.75;4459556;32;33355;-83
2022/06/29 02:54:15;;;;;;;7.32;4.68;;;;;;;24.55;58.06;99709.22;4458834;32;33466;-83
2022/06/29 02:56:43;;;;;;;6.57;3.90;;;;;;;24.53;58.22;99708.69;4459506;32;31834;-83
2022/06/29 02:59:14;;;;;;;5.37;3.90;;;;;;;24.39;58.82;99709.69;4471983;32;34437;-83
2022/06/29 03:01:47;;;;;;;6.70;4.15;;;;;;;24.46;58.71;99699.78;4471755;32;34393;-83
2022/06/29 03:04:17;;;;;;;6.57;4.10;;;;;;;24.49;58.62;99707.59;4472595;32;33867;-83
2022/06/29 03:06:54;;;;;;;10.40;4.80;;;;;;;24.56;58.43;99704.44;4472275;32;33118;-83
2022/06/29 03:09:26;;;;;;;6.70;4.37;;;;;;;24.60;58.22;99713.94;4472013;32;33774;-83
2022/06/29 03:11:56;;;;;;;7.10;4.40;;;;;;;24.65;58.15;99707.41;4471416;32;32641;-82
2022/06/29 03:14:26;;;;;;;6.60;4.07;;;;;;;24.37;59.15;99717.59;4459173;32;33966;-82
2022/06/29 03:17:00;;;;;;;6.07;4.03;;;;;;;24.40;59.27;99720.63;4484692;32;31887;-83
2022/06/29 03:19:31;;;;;;;6.90;4.40;;;;;;;24.42;59.23;99715.56;4459119;32;33936;-84
2022/06/29 03:22:09;;;;;;;7.43;4.10;;;;;;;24.52;58.98;99709.81;4484822;32;34512;-84
2022/06/29 03:24:46;;;;;;;6.40;4.15;;;;;;;24.51;58.99;99712.91;4459242;32;33047;-83
2022/06/29 03:27:16;;;;;;;6.87;4.55;;;;;;;24.42;59.29;99704.31;4485872;32;33375;-82
2022/06/29 03:29:52;;;;;;;6.75;4.05;;;;;;;24.39;59.51;99709.69;4471622;32;33633;-83
2022/06/29 03:32:25;;;;;;;7.03;4.60;;;;;;;24.34;59.71;99715.38;4472124;32;35838;-82
2022/06/29 03:34:53;;;;;;;6.87;4.53;;;;;;;24.50;59.30;99714.88;4471513;32;33331;-82
2022/06/29 03:37:29;;;;;;;7.32;4.35;;;;;;;24.61;59.12;99712.78;4459000;32;31833;-83
2022/06/29 03:40:01;;;;;;;6.82;4.03;;;;;;;24.65;59.09;99713.84;4471201;32;33799;-83
2022/06/29 03:42:34;;;;;;;8.95;4.35;;;;;;;24.68;58.96;99713.25;4471520;32;35115;-85
2022/06/29 03:45:02;;;;;;;7.75;4.45;;;;;;;24.71;59.02;99717.41;4471485;32;32680;-83
2022/06/29 03:47:32;;;;;;;9.80;4.45;;;;;;;24.70;58.63;99727.78;4458113;32;32480;-84
2022/06/29 03:50:03;;;;;;;7.47;4.72;;;;;;;24.94;57.88;99720.16;4471488;32;33709;-84
2022/06/29 03:52:37;;;;;;;11.70;4.62;;;;;;;24.98;57.79;99723.22;4471902;32;34441;-85
2022/06/29 03:55:07;;;;;;;9.18;5.18;;;;;;;25.08;57.26;99728.69;4484316;32;34650;-83
2022/06/29 03:57:35;;;;;;;8.18;4.97;;;;;;;25.16;57.24;99718.75;4458653;32;33141;-83
2022/06/29 04:00:06;;;;;;;10.07;4.80;;;;;;;25.16;56.86;99718.75;4471337;32;33152;-78
2022/06/29 04:02:39;;;;;;;7.50;4.80;;;;;;;24.99;56.65;99710.84;4484366;32;35175;-78
2022/06/29 04:05:07;;;;;;;8.50;5.03;;;;;;;25.03;56.43;99705.47;4485359;32;34004;-78
2022/06/29 04:07:38;;;;;;;8.88;4.82;;;;;;;25.22;55.78;99701.50;4471399;32;33220;-78
2022/06/29 04:10:08;;;;;;;8.35;5.53;;;;;;;25.27;55.94;99704.25;4484222;32;33769;-79
2022/06/29 04:12:42;;;;;;;11.35;5.10;;;;;;;25.26;55.69;99710.16;4485472;32;35242;-78
2022/06/29 04:15:13;;;;;;;9.10;5.15;;;;;;;25.35;55.74;99719.53;4483636;32;34553;-78
2022/06/29 04:17:44;;;;;;;8.98;5.20;;;;;;;25.34;55.62;99715.09;4486921;32;33608;-77
2022/06/29 04:21:05;;;;;;;9.50;5.20;;;;;;;25.40;55.38;99710.19;4488171;32;34841;-77
2022/06/29 04:23:02;;;;;;;7.90;5.15;;;;;;;25.28;55.10;99716.31;4476011;32;32798;-79
2022/06/29 04:25:31;;;;;;;7.70;5.65;;;;;;;25.48;54.80;99709.50;4487693;32;34680;-76
2022/06/29 04:28:06;;;;;;;6.65;4.82;;;;;;;25.60;54.68;99712.66;4486115;32;34001;-79
2022/06/29 04:30:34;;;;;;;10.10;5.37;;;;;;;25.54;54.90;99713.88;4484270;32;33771;-78
2022/06/29 04:33:07;;;;;;;8.40;5.03;;;;;;;25.59;54.48;99711.81;4484009;32;34413;-79
2022/06/29 04:35:37;;;;;;;8.57;5.03;;;;;;;25.85;54.00;99717.03;4484979;32;34180;-78
2022/06/29 04:38:05;;;;;;;7.95;5.45;;;;;;;25.90;54.04;99711.31;4484100;32;33532;-78
2022/06/29 04:40:36;;;;;;;9.98;5.30;;;;;;;25.74;53.75;99713.56;4483385;32;34421;-79
2022/06/29 04:43:07;;;;;;;7.62;5.50;;;;;;;25.79;53.57;99721.91;4482200;32;35357;-78
2022/06/29 04:48:27;;;;;;;7.90;5.28;;;;;;;25.92;53.32;99712.69;4483304;32;33324;-78
2022/06/29 04:50:58;;;;;;;8.70;5.55;;;;;;;25.86;53.67;99722.34;4483423;32;33847;-78
2022/06/29 04:53:28;;;;;;;7.93;5.20;;;;;;;25.91;52.84;99724.22;4483311;32;34326;-79
2022/06/29 04:55:56;;;;;;;6.65;4.90;;;;;;;26.05;53.00;99722.25;4483277;32;34608;-78
2022/06/29 04:58:24;;;;;;;9.60;5.15;;;;;;;26.03;52.27;99721.72;4457877;32;32821;-78
2022/06/29 05:00:56;;;;;;;8.25;4.93;;;;;;;26.24;51.84;99725.81;4470735;32;33901;-78
2022/06/29 05:03:27;;;;;;;9.57;5.07;;;;;;;26.26;52.40;99723.53;4483276;32;34426;-78
2022/06/29 05:06:00;;;;;;;11.63;5.35;;;;;;;26.32;52.84;99729.09;4483398;32;33894;-77
2022/06/29 05:08:33;;;;;;;11.65;5.30;;;;;;;26.38;52.90;99716.56;4483380;32;34106;-80
2022/06/29 05:11:04;;;;;;;9.60;5.05;;;;;;;26.29;53.24;99724.88;4483410;32;34244;-81
2022/06/29 05:13:37;;;;;;;9.32;5.35;;;;;;;26.49;51.88;99724.50;4470736;32;34474;-81
2022/06/29 05:16:07;;;;;;;10.65;5.10;;;;;;;26.48;51.78;99722.81;4457287;32;32336;-80
2022/06/29 05:18:38;;;;;;;9.65;5.53;;;;;;;26.48;51.85;99728.47;4483232;32;32169;-81
2022/06/29 05:21:11;;;;;;;7.82;5.45;;;;;;;26.62;51.35;99731.28;4457393;32;31777;-81
2022/06/29 05:23:44;;;;;;;7.57;5.40;;;;;;;26.58;51.88;99736.69;4470466;32;34612;-80
2022/06/29 05:26:16;;;;;;;9.15;5.50;;;;;;;26.77;51.38;99736.53;4471184;32;32602;-80
2022/06/29 05:28:44;;;;;;;10.38;5.68;;;;;;;26.56;51.22;99724.91;4472771;32;31665;-80
2022/06/29 05:31:17;;;;;;;9.45;5.40;;;;;;;26.65;51.45;99732.63;4472087;32;34505;-80
2022/06/29 05:33:51;;;;;;;10.50;5.43;;;;;;;26.81;51.12;99737.59;4485132;32;34369;-80
2022/06/29 05:36:21;;;;;;;9.73;5.03;;;;;;;26.89;50.93;99730.38;4485211;32;34630;-79
2022/06/29 05:38:48;;;;;;;9.45;5.65;;;;;;;26.97;50.85;99726.84;4472385;32;33983;-80
2022/06/29 05:41:23;;;;;;;10.73;5.30;;;;;;;26.67;50.30;99727.47;4460124;32;32349;-79
2022/06/29 05:43:57;;;;;;;6.75;4.78;;;;;;;26.78;51.16;99731.75;4478835;32;34656;-80
2022/06/29 05:46:33;;;;;;;8.95;5.68;;;;;;;26.75;50.52;99718.28;4479593;32;33807;-78
2022/06/29 05:49:04;;;;;;;7.85;5.32;;;;;;;26.96;50.49;99711.09;4477910;32;31654;-78
2022/06/29 05:51:32;;;;;;;7.50;5.00;;;;;;;27.20;49.63;99710.81;4476634;32;35142;-79
2022/06/29 05:54:07;;;;;;;8.77;4.90;;;;;;;27.27;49.60;99714.03;4474072;32;34501;-78
2022/06/29 05:56:37;;;;;;;9.63;5.50;;;;;;;27.39;49.55;99707.78;4472800;32;33766;-78
2022/06/29 05:59:06;;;;;;;7.43;5.25;;;;;;;27.10;49.54;99708.22;4472533;32;32198;-78
2022/06/29 06:01:36;;;;;;;9.85;5.32;;;;;;;27.14;49.18;99704.47;4486615;32;32615;-78
2022/06/29 06:04:04;;;;;;;8.73;5.25;;;;;;;27.34;48.89;99705.09;4459484;32;34226;-78
2022/06/29 06:06:32;;;;;;;8.75;4.95;;;;;;;27.58;48.32;99702.78;4471880;32;33844;-75
2022/06/29 06:09:00;;;;;;;9.75;5.70;;;;;;;27.64;48.63;99709.16;4484666;32;33159;-77
2022/06/29 06:11:28;;;;;;;7.82;5.15;;;;;;;27.63;48.49;99708.34;4470784;32;32291;-76
2022/06/29 06:13:55;;;;;;;8.45;5.30;;;;;;;27.72;48.14;99709.22;4471894;32;34347;-77
2022/06/29 06:16:23;;;;;;;9.23;5.40;;;;;;;27.74;48.26;99691.97;4472159;32;34733;-77
2022/06/29 06:19:07;;;;;;;7.87;5.40;;;;;;;27.84;48.82;99698.19;4472596;32;32004;-77
2022/06/29 06:21:36;;;;;;;9.65;6.03;;;;;;;27.88;48.14;99699.19;4462369;32;33400;-75
2022/06/29 06:24:07;;;;;;;8.93;5.78;;;;;;;28.08;47.79;99697.78;4457317;32;35095;-77
2022/06/29 06:26:38;;;;;;;11.35;5.47;;;;;;;28.18;47.66;99702.31;4469746;32;33792;-76
2022/06/29 06:29:06;;;;;;;10.10;5.32;;;;;;;28.29;47.43;99700.91;4475059;32;33973;-77
2022/06/29 06:31:50;;;;;;;10.20;5.28;;;;;;;28.27;47.35;99700.41;4468549;32;33735;-78
2022/06/29 06:34:37;;;;;;;12.18;5.82;;;;;;;28.16;47.64;99702.63;4467259;32;34999;-75
2022/06/29 06:37:28;;;;;;;10.38;5.45;;;;;;;28.25;47.12;99699.88;4467325;32;34610;-75
2022/06/29 06:43:41;;;;;;;9.35;5.43;;;;;;;28.54;46.85;99707.81;4469016;32;33620;-75
2022/06/29 06:49:30;;;;;;;10.27;5.93;;;;;;;28.43;46.93;99690.31;4458382;32;33502;-76
2022/06/29 06:52:25;;;;;;;12.10;5.87;;;;;;;28.64;46.00;99692.50;4469200;32;34041;-76
2022/06/29 06:55:09;;;;;;;8.68;5.57;;;;;;;28.65;46.14;99682.88;4469092;32;34078;-75
2022/06/29 06:58:09;;;;;;;10.23;5.78;;;;;;;28.78;45.80;99682.75;4457728;32;33180;-76
2022/06/29 07:01:26;;;;;;;12.90;5.68;;;;;;;28.73;46.01;99682.91;4471309;32;32555;-76
2022/06/29 07:04:31;;;;;;;11.15;5.65;;;;;;;28.85;45.90;99680.28;4474902;32;32728;-77
2022/06/29 07:07:28;;;;;;;9.30;5.80;;;;;;;28.94;45.91;99680.31;4450530;32;32706;-76
2022/06/29 07:10:42;;;;;;;7.82;5.40;;;;;;;29.11;44.84;99673.84;4477672;32;34977;-77
2022/06/29 07:13:22;;;;;;;10.23;5.40;;;;;;;29.16;45.31;99666.00;4485323;32;34091;-78
2022/06/29 07:15:57;;;;;;;13.45;5.62;;;;;;;29.38;44.87;99658.50;4469373;32;33232;-76
2022/06/29 07:18:24;;;;;;;8.77;5.07;;;;;;;29.34;45.06;99661.16;4457925;32;32313;-77
2022/06/29 07:20:52;;;;;;;8.15;5.80;;;;;;;29.41;45.34;99655.84;4466668;32;32845;-76
2022/06/29 07:23:20;;;;;;;16.25;6.95;;;;;;;29.34;45.10;99658.31;4471510;32;33313;-76
2022/06/29 07:25:48;;;;;;;27.05;7.07;;;;;;;29.53;44.50;99655.16;4463648;32;31851;-76
2022/06/29 07:28:18;;;;;;;9.82;5.70;;;;;;;29.67;43.69;99661.47;4472178;32;33743;-77
2022/06/29 07:30:46;;;;;;;8.48;5.18;;;;;;;29.60;43.58;99663.97;4471464;32;35109;-77
2022/06/29 07:33:16;;;;;;;15.38;6.35;;;;;;;29.65;43.64;99658.16;4484998;32;34575;-77
2022/06/29 07:35:46;;;;;;;9.90;5.50;;;;;;;29.73;43.68;99664.94;4459140;32;31915;-76
2022/06/29 07:38:47;;;;;;;11.93;5.55;;;;;;;29.68;43.69;99660.31;4472472;32;33766;-76
2022/06/29 07:41:33;;;;;;;9.20;5.70;;;;;;;29.81;43.94;99656.44;4484700;32;34498;-76
2022/06/29 07:44:33;;;;;;;8.23;5.37;;;;;;;30.00;43.73;99656.03;4484477;32;32386;-76
2022/06/29 07:47:20;;;;;;;13.40;5.62;;;;;;;30.18;43.64;99656.81;4473021;32;32454;-76
2022/06/29 07:50:15;;;;;;;11.82;5.82;;;;;;;30.12;43.16;99655.34;4471812;32;34316;-76
2022/06/29 07:53:21;;;;;;;13.50;5.45;;;;;;;30.24;42.33;99663.94;4473827;32;34189;-76
2022/06/29 07:56:09;;;;;;;9.65;5.55;;;;;;;30.31;42.81;99658.56;4472707;32;34030;-76
2022/06/29 07:59:17;;;;;;;12.18;5.80;;;;;;;30.37;42.45;99662.88;4484281;32;31819;-76
2022/06/29 08:02:14;;;;;;;10.57;5.62;;;;;;;30.41;42.49;99666.69;4471734;32;33404;-76
2022/06/29 08:05:02;;;;;;;47.92;11.75;;;;;;;30.65;41.93;99653.88;4472637;32;33017;-76
2022/06/29 08:08:01;;;;;;;16.87;5.47;;;;;;;30.64;41.24;99641.72;4473216;32;33753;-76
2022/06/29 08:11:13;;;;;;;24.30;7.47;;;;;;;30.73;40.67;99641.66;4485441;32;33225;-76
2022/06/29 08:14:39;;;;;;;12.60;4.95;;;;;;;30.85;39.68;99653.06;4484638;32;34001;-75
2022/06/29 08:17:38;;;;;;;11.48;5.25;;;;;;;31.06;39.81;99653.09;4470646;32;33153;-75
2022/06/29 08:20:28;;;;;;;11.18;5.15;;;;;;;31.02;39.88;99664.28;4479458;32;32511;-75
2022/06/29 08:23:24;;;;;;;10.52;5.40;;;;;;;31.04;39.08;99661.94;4456711;32;31466;-77
2022/06/29 08:26:16;;;;;;;11.90;5.25;;;;;;;31.26;39.18;99651.41;4469607;32;33722;-77
2022/06/29 08:29:31;;;;;;;16.20;5.90;;;;;;;31.26;39.71;99651.41;4448677;32;32856;-82
2022/06/29 08:32:07;;;;;;;9.00;5.15;;;;;;;31.36;39.96;99646.16;4468488;32;33929;-80
2022/06/29 08:37:06;;;;;;;14.63;5.53;;;;;;;31.50;38.07;99645.84;4455239;32;32375;-81
2022/06/29 08:39:34;;;;;;;14.05;5.28;;;;;;;31.70;37.99;99645.00;4455336;32;34202;-79
2022/06/29 08:42:04;;;;;;;81.63;11.12;;;;;;;31.77;37.52;99627.41;4468196;32;34161;-81
2022/06/29 08:44:32;;;;;;;81.15;10.75;;;;;;;31.96;37.82;99636.16;4455395;32;33555;-81
2022/06/29 08:47:02;;;;;;;81.05;12.35;;;;;;;32.06;36.11;99635.69;4460676;32;33555;-82
2022/06/29 08:49:31;;;;;;;20.15;5.70;;;;;;;32.26;35.94;99631.12;4480979;32;35179;-82
2022/06/29 08:51:59;;;;;;;44.83;8.35;;;;;;;32.27;35.69;99629.09;4472393;32;34285;-81
2022/06/29 08:54:31;;;;;;;78.10;11.48;;;;;;;32.41;36.10;99640.94;4462367;32;34141;-79
2022/06/29 08:57:11;;;;;;;385.98;33.45;;;;;;;32.35;36.83;99631.00;4461637;32;34319;-80
2022/06/29 08:59:41;;;;;;;21.33;5.72;;;;;;;32.52;36.76;99635.56;4455034;32;35547;-80
2022/06/29 09:02:31;;;;;;;13.15;4.97;;;;;;;32.81;35.32;99629.66;4455431;32;33407;-80
2022/06/29 09:04:59;;;;;;;22.75;5.03;;;;;;;32.99;35.81;99631.03;4457034;32;31930;-76
2022/06/29 09:07:27;;;;;;;14.13;4.25;;;;;;;33.11;35.14;99627.31;4485541;32;34502;-76
2022/06/29 09:10:08;;;;;;;66.12;8.90;;;;;;;33.14;33.38;99629.44;4475708;32;35586;-76
2022/06/29 09:12:41;;;;;;;50.00;6.82;;;;;;;33.13;32.89;99630.63;4478363;32;33744;-76
2022/06/29 09:15:10;;;;;;;75.75;8.90;;;;;;;33.34;32.78;99624.75;4468859;32;31984;-77
2022/06/29 09:17:40;;;;;;;15.52;4.07;;;;;;;33.52;32.32;99622.41;4482357;32;34069;-77
2022/06/29 09:20:12;;;;;;;9.68;4.20;;;;;;;33.56;31.67;99623.31;4485502;32;35148;-78
2022/06/29 09:23:00;;;;;;;9.75;3.40;;;;;;;33.64;31.26;99613.78;4474817;32;32583;-80
2022/06/29 09:25:32;;;;;;;7.05;3.62;;;;;;;33.91;31.85;99607.22;4472643;32;32065;-80
2022/06/29 09:28:00;;;;;;;7.97;3.75;;;;;;;33.89;31.06;99617.31;4485499;32;33805;-81
2022/06/29 09:30:30;;;;;;;7.22;3.65;;;;;;;34.00;30.68;99610.72;4472541;32;34662;-80
2022/06/29 09:33:06;;;;;;;8.18;4.12;;;;;;;33.98;31.44;99615.94;4458083;32;32367;-80
2022/06/29 09:35:35;;;;;;;6.20;4.03;;;;;;;33.99;31.45;99617.59;4479240;32;31862;-80
2022/06/29 09:38:25;;;;;;;5.75;3.87;;;;;;;34.23;31.45;99616.59;4481824;32;34376;-81
2022/06/29 09:41:31;;;;;;;7.78;3.47;;;;;;;34.47;30.70;99607.00;4471737;32;34432;-80
2022/06/29 09:44:24;;;;;;;6.05;3.78;;;;;;;34.42;30.17;99613.00;4466423;32;34096;-82
2022/06/29 09:47:11;;;;;;;6.72;3.92;;;;;;;34.57;29.76;99597.87;4478233;32;33122;-82
2022/06/29 09:49:57;;;;;;;10.73;4.00;;;;;;;34.52;29.89;99606.69;4476220;32;34967;-81
2022/06/29 09:52:48;;;;;;;7.35;3.72;;;;;;;34.57;29.78;99606.41;4467707;32;32864;-81
2022/06/29 09:55:40;;;;;;;5.85;3.53;;;;;;;34.87;29.71;99592.47;4467748;32;33530;-81
2022/06/29 09:58:28;;;;;;;5.87;3.55;;;;;;;35.01;29.11;99597.66;4459193;32;31777;-81
2022/06/29 10:04:18;;;;;;;12.23;3.75;;;;;;;35.44;28.85;99585.09;4474613;32;32877;-81
2022/06/29 10:07:13;;;;;;;7.40;3.60;;;;;;;35.33;29.19;99581.22;4461090;32;32358;-81
2022/06/29 10:10:05;;;;;;;7.90;3.37;;;;;;;35.69;28.52;99579.03;4471784;32;31846;-82
2022/06/29 10:16:29;;;;;;;7.82;3.40;;;;;;;35.86;26.18;99576.50;4480179;32;35396;-83
2022/06/29 10:19:47;;;;;;;6.57;3.35;;;;;;;35.95;25.72;99579.94;4482051;32;33848;-78
2022/06/29 10:22:55;;;;;;;9.13;3.20;;;;;;;35.87;25.28;99560.19;4472696;32;32699;-81
2022/06/29 10:26:09;;;;;;;14.80;3.00;;;;;;;35.83;25.11;99554.41;4470922;32;32030;-80
2022/06/29 10:29:01;;;;;;;7.85;3.10;;;;;;;36.09;24.76;99559.34;4472625;32;34389;-79
2022/06/29 10:32:05;;;;;;;276.45;19.42;;;;;;;36.26;25.50;99549.41;4459053;32;32419;-78
2022/06/29 10:35:08;;;;;;;16.73;3.70;;;;;;;36.42;24.72;99550.06;4483814;32;34170;-78
2022/06/29 10:37:51;;;;;;;9.43;3.50;;;;;;;36.54;25.15;99541.28;4483456;32;34572;-77
2022/06/29 10:40:24;;;;;;;14.43;4.35;;;;;;;36.58;25.57;99549.91;4483236;32;35036;-78
2022/06/29 10:43:07;;;;;;;11.48;4.20;;;;;;;36.83;25.08;99545.38;4470901;32;32401;-76
2022/06/29 10:45:42;;;;;;;11.95;3.83;;;;;;;36.89;25.43;99545.84;4484242;32;33434;-76
2022/06/29 10:48:38;;;;;;;15.20;3.87;;;;;;;36.93;25.00;99527.53;4477189;32;34395;-77
2022/06/29 10:51:17;;;;;;;9.82;4.00;;;;;;;37.09;24.69;99535.03;4470282;31;34331;-76
2022/06/29 10:54:02;;;;;;;7.82;3.80;;;;;;;37.28;24.88;99526.31;4476755;32;34028;-77
2022/06/29 10:57:04;;;;;;;13.27;4.65;;;;;;;37.34;25.10;99524.72;4466055;32;32651;-76
2022/06/29 10:59:58;;;;;;;7.35;3.35;;;;;;;37.21;24.00;99529.09;4483618;32;33670;-77
2022/06/29 11:02:33;;;;;;;14.57;4.40;;;;;;;37.55;24.11;99524.94;4480176;32;34152;-76
2022/06/29 11:05:00;;;;;;;16.75;4.62;;;;;;;37.45;24.63;99519.94;4485503;32;33996;-77
2022/06/29 11:18:14;;;;;;;20.27;5.18;;;;;;;38.15;23.69;99507.50;4453648;32;34636;-81
2022/06/29 11:20:53;;;;;;;87.50;16.30;;;;;;;38.26;22.44;99492.41;4484541;32;33519;-79
2022/06/29 11:23:29;;;;;;;16.27;6.07;;;;;;;38.29;25.53;99486.69;4471292;32;33972;-79
2022/06/29 11:26:00;;;;;;;17.87;5.30;;;;;;;38.31;23.73;99484.25;4471507;32;34668;-81
2022/06/29 11:28:36;;;;;;;19.95;6.10;;;;;;;38.36;23.73;99483.84;4456801;32;33674;-80
2022/06/29 11:31:14;;;;;;;14.93;3.95;;;;;;;38.42;23.29;99484.28;4483137;32;32906;-81
2022/06/29 11:33:49;;;;;;;16.12;5.22;;;;;;;38.60;23.06;99478.66;4484479;32;34684;-80
2022/06/29 11:36:55;;;;;;;7.40;3.65;;;;;;;38.56;25.14;99470.00;4457241;32;32943;-80
2022/06/29 11:39:47;;;;;;;7.45;3.40;;;;;;;38.78;23.08;99457.44;4466117;32;34628;-82
2022/06/29 11:46:06;;;;;;;12.75;3.90;;;;;;;38.59;22.11;99454.91;4463261;32;32892;-78
2022/06/29 11:52:13;;;;;;;7.22;3.15;;;;;;;38.60;22.51;99456.53;4477528;32;33976;-78
2022/06/29 11:55:06;;;;;;;6.15;3.05;;;;;;;38.54;21.51;99456.06;4462036;32;34519;-75
2022/06/29 11:58:04;;;;;;;9.68;3.80;;;;;;;38.60;21.43;99450.81;4463276;32;33753;-75
2022/06/29 12:00:54;;;;;;;11.68;3.42;;;;;;;38.78;21.40;99436.53;4484512;32;35395;-75
2022/06/29 12:03:28;;;;;;;7.25;3.20;;;;;;;38.71;21.21;99439.38;4483549;32;34753;-76
2022/06/29 12:06:00;;;;;;;9.23;3.50;;;;;;;38.72;21.38;99430.37;4483874;32;33255;-75
2022/06/29 12:08:27;;;;;;;13.73;4.05;;;;;;;38.88;21.27;99430.81;4475772;32;33369;-76
2022/06/29 12:11:09;;;;;;;7.37;3.25;;;;;;;38.61;21.29;99420.91;4477635;32;33196;-76
2022/06/29 12:14:12;;;;;;;9.02;3.50;;;;;;;38.58;20.90;99427.44;4478914;32;33924;-75
2022/06/29 12:17:20;;;;;;;6.10;3.00;;;;;;;38.77;21.50;99414.81;4485116;32;34730;-75
2022/06/29 12:20:01;;;;;;;;;;;;;;;38.95;21.58;99411.97;4485432;32;33940;-75
2022/06/29 12:23:19;;;;;;;7.37;2.97;;;;;;;38.83;20.54;99427.53;4485256;32;34452;-75
2022/06/29 12:26:09;;;;;;;7.18;3.37;;;;;;;38.75;21.53;99412.34;4484045;32;34440;-75
2022/06/29 12:29:03;;;;;;;5.53;2.80;;;;;;;38.95;21.48;99400.50;4483875;32;33338;-76
2022/06/29 12:31:53;;;;;;;10.70;3.08;;;;;;;38.92;20.75;99399.28;4485292;32;33628;-76
2022/06/29 12:34:40;;;;;;;7.57;3.12;;;;;;;39.00;21.63;99402.97;4485141;32;35556;-76
2022/06/29 12:37:28;;;;;;;6.55;2.87;;;;;;;38.93;21.24;99402.97;4486799;32;34121;-76
2022/06/29 12:40:16;;;;;;;49.97;5.97;;;;;;;39.11;20.25;99398.91;4486990;32;33262;-79
2022/06/29 12:43:06;;;;;;;7.53;2.80;;;;;;;38.94;20.94;99378.78;4477609;32;34481;-77
2022/06/29 12:46:00;;;;;;;7.18;3.10;;;;;;;38.88;20.87;99387.78;4457852;32;32993;-79
2022/06/29 12:48:56;;;;;;;6.30;3.05;;;;;;;38.47;20.41;99397.88;4454483;32;33802;-76
2022/06/29 12:51:43;;;;;;;5.93;2.50;;;;;;;38.62;20.41;99391.00;4455755;32;33179;-76
2022/06/29 12:54:31;;;;;;;7.90;3.10;;;;;;;38.67;20.66;99386.91;4454439;32;34626;-76
2022/06/29 12:57:27;;;;;;;15.18;4.30;;;;;;;38.60;20.42;99393.44;4455487;32;34471;-76
2022/06/29 13:00:15;;;;;;;8.90;3.12;;;;;;;38.74;20.88;99390.63;4454433;32;33836;-77
2022/06/29 13:02:46;;;;;;;;;;;;;;;38.49;21.10;99389.69;4454751;32;33355;-75
2022/06/29 13:05:14;;;;;;;6.65;2.90;;;;;;;38.46;20.14;99384.75;4455815;32;33993;-76